Terminal Aerodrome Forecast
Issued by NWS Albany, NY

Home | Current Version | Previous Version | Text Only | Print | Product List | Glossary On
Versions: 1 2 3 4 5 6 7 8 9 10 11 12
000
FTUS41 KALY 270521
TAFALB
TAF
KALB 270521Z 2706/2806 32006KT P6SM SCT050 OVC070
     FM270900 32005KT P6SM SCT030 OVC050
     FM271400 33007G17KT P6SM VCSH SCT030 OVC045 PROB30 2715/2718
      -SHRA BKN030
     FM271800 33009G19KT P6SM -SHRA OVC040
     FM280000 35007G17KT P6SM OVC030=

USA.gov is the U.S. government's official web portal to all federal, state and local government web resources and services.